METAR Data
IDs: Format: Raw Decoded Include TAF

Data at: 1053 UTC 26 Sep 2018

KAWG 261035Z AUTO 24005KT 10SM CLR 07/07 A3014 RMK AO2
KAWG 261015Z AUTO 23006KT 10SM CLR 07/07 A3013 RMK AO2
KAWG 260955Z AUTO 23005KT 10SM CLR 07/07 A3013 RMK AO2
KAWG 260935Z AUTO 23005KT 10SM CLR 07/07 A3012 RMK AO2
KAWG 260915Z AUTO 24006KT 10SM CLR 07/07 A3012 RMK AO2
KAWG 260855Z AUTO 23005KT 10SM CLR 07/07 A3012 RMK AO2
KAWG 260835Z AUTO 25006KT 10SM CLR 07/07 A3011 RMK AO2
KAWG 260815Z AUTO 24004KT 10SM CLR 07/07 A3011 RMK AO2
KAWG 260755Z AUTO 24005KT 10SM CLR 07/07 A3011 RMK AO2
KAWG 260735Z AUTO 26004KT 10SM CLR 08/08 A3011 RMK AO2
KAWG 260715Z AUTO 28005KT 10SM CLR 08/08 A3011 RMK AO2
KAWG 260655Z AUTO 28005KT 10SM CLR 08/08 A3010 RMK AO2
KAWG 260635Z AUTO 26005KT 10SM CLR 09/09 A3011 RMK AO2
KAWG 260615Z AUTO 26005KT 10SM CLR 09/09 A3010 RMK AO2
KAWG 260555Z AUTO 29006KT 10SM CLR 10/09 A3010 RMK AO2
KAWG 260535Z AUTO 29005KT 10SM CLR 10/09 A3009 RMK AO2
KAWG 260515Z AUTO 30006KT 10SM CLR 10/09 A3009 RMK AO2
KAWG 260455Z AUTO 30007KT 10SM CLR 10/09 A3009 RMK AO2
KAWG 260435Z AUTO 31006KT 10SM CLR 10/09 A3009 RMK AO2
KAWG 260415Z AUTO 32007KT 10SM CLR 11/09 A3009 RMK AO2
KAWG 260355Z AUTO 33008G17KT 10SM SCT025 12/09 A3008 RMK AO2
KAWG 260335Z AUTO 33014KT 10SM OVC026 13/10 A3008 RMK AO2
KAWG 260315Z AUTO 31014G23KT 10SM BKN026 13/10 A3007 RMK AO2
KAWG 260255Z AUTO 31016KT 10SM SCT026 13/10 A3007 RMK AO2
KAWG 260235Z AUTO 32016KT 10SM SCT026 13/11 A3006 RMK AO2
KAWG 260215Z AUTO 32013G23KT 10SM OVC025 14/11 A3004 RMK AO2
KAWG 260155Z AUTO 32015KT 10SM SCT025 OVC050 14/12 A3003 RMK AO2
KAWG 260135Z AUTO 32014G20KT 10SM OVC049 15/12 A3003 RMK AO2
KAWG 260115Z AUTO 32013G19KT 10SM FEW019 SCT024 BKN044 15/13 A3001 RMK AO2
KAWG 260055Z AUTO 32015KT 10SM SCT019 OVC041 15/13 A3000 RMK AO2
KAWG 260035Z AUTO 31014KT 10SM OVC038 15/13 A2999 RMK AO2
KAWG 260015Z AUTO 32013G21KT 10SM FEW013 OVC034 15/14 A2998 RMK AO2
KAWG 252355Z AUTO 32012G20KT 10SM BKN013 BKN018 OVC029 15/14 A2998 RMK AO2
KAWG 252335Z AUTO 32017G23KT 10SM SCT010 OVC015 15/14 A2996 RMK AO2
KAWG 252315Z AUTO 32015G23KT 10SM OVC010 17/16 A2994 RMK AO2
KAWG 252255Z AUTO 31016KT 10SM OVC011 17/16 A2993 RMK AO2
KAWG 252235Z AUTO 32016G22KT 10SM BKN012 OVC018 18/17 A2992 RMK AO2
KAWG 252215Z AUTO 32019KT 10SM BKN015 BKN021 OVC034 20/17 A2991 RMK AO2
KAWG 252155Z AUTO 31014KT 10SM BKN018 BKN035 20/18 A2989 RMK AO2
KAWG 252135Z AUTO 31015KT 10SM BKN018 20/18 A2988 RMK AO2
KAWG 252115Z AUTO 30015KT 10SM SCT014 21/19 A2986 RMK AO2
KAWG 252055Z AUTO 29011KT 10SM FEW015 22/19 A2985 RMK AO2
KAWG 252035Z AUTO 29008KT 10SM CLR 22/20 A2984 RMK AO2
KAWG 252015Z AUTO 30009KT 10SM CLR 22/20 A2983 RMK AO2
KAWG 251955Z AUTO 27008KT 9SM FEW055 21/21 A2982 RMK AO2 P0011
KAWG 251935Z AUTO 26009G15KT 10SM FEW029 FEW043 SCT055 20/20 A2984 RMK AO2
KAWG 251915Z AUTO 27011G19KT 2SM -RA FEW017 SCT027 BKN032 20/20 A2983 RMK AO2
KAWG 251855Z AUTO 25022G29KT 3SM -RA FEW020 SCT031 BKN048 22/21 A2984 RMK AO2 P0001
KAWG 251835Z AUTO 20011G17KT 10SM SCT075 BKN080 24/20 A2981 RMK AO2
KAWG 251815Z AUTO 18013G18KT 10SM FEW080 25/21 A2981 RMK AO2
KAWG 251755Z AUTO 19008G15KT 10SM FEW021 FEW075 25/21 A2983 RMK AO2
KAWG 251735Z AUTO 18009KT 10SM SCT020 SCT041 SCT055 25/21 A2984 RMK AO2
KAWG 251715Z AUTO 20006KT 10SM FEW019 SCT041 BKN055 24/21 A2986 RMK AO2
KAWG 251655Z AUTO 17006KT 10SM FEW050 FEW060 SCT075 24/21 A2987 RMK AO2
KAWG 251635Z AUTO VRB05KT 10SM SCT045 SCT055 SCT085 23/21 A2987 RMK AO2
KAWG 251615Z AUTO 18005KT 10SM BKN045 BKN055 23/21 A2988 RMK AO2
KAWG 251555Z AUTO 22005KT 10SM FEW012 BKN045 BKN070 23/21 A2987 RMK AO2
KAWG 251535Z AUTO 17006KT 10SM SCT012 BKN070 22/21 A2987 RMK AO2
KAWG 251515Z AUTO 17006KT 10SM BKN012 BKN040 BKN070 22/20 A2988 RMK AO2
KAWG 251455Z AUTO 20006KT 10SM SCT011 BKN039 22/20 A2988 RMK AO2
KAWG 251435Z AUTO VRB05KT 10SM FEW010 BKN038 21/20 A2989 RMK AO2
KAWG 251415Z AUTO VRB05KT 10SM BKN038 20/20 A2989 RMK AO2
KAWG 251355Z AUTO 17007KT 10SM BKN037 BKN043 19/19 A2988 RMK AO2
KAWG 251335Z AUTO 20005KT 10SM SCT035 19/19 A2989 RMK AO2
KAWG 251315Z AUTO 18006KT 6SM BR CLR 18/18 A2989 RMK AO2
KAWG 251255Z AUTO 17004KT 5SM BR SCT036 SCT041 18/18 A2989 RMK AO2
KAWG 251235Z AUTO 18006KT 2SM BR BKN034 OVC040 17/17 A2990 RMK AO2
KAWG 251215Z AUTO 17004KT 1/2SM BR OVC035 16/16 A2990 RMK AO2
KAWG 251155Z AUTO 19004KT M1/4SM FG OVC035 16/16 A2990 RMK AO2
KAWG 251135Z AUTO 20005KT 1/4SM FG BKN032 16/16 A2990 RMK AO2
KAWG 251115Z AUTO 22004KT 5SM BR CLR 17/17 A2989 RMK AO2
KAWG 251055Z AUTO 23004KT 6SM BR FEW036 17/17 A2990 RMK AO2
KAWG 251035Z AUTO 23005KT 9SM BKN037 18/18 A2990 RMK AO2
KAWG 251015Z AUTO 22005KT 6SM BR OVC038 18/18 A2990 RMK AO2
KAWG 250955Z AUTO 20005KT 5SM BR SCT036 BKN042 18/18 A2990 RMK AO2
KAWG 250935Z AUTO 21005KT 3SM BR SCT038 17/17 A2990 RMK AO2
KAWG 250915Z AUTO 00000KT 1 1/4SM BR SCT032 BKN042 17/17 A2989 RMK AO2
KAWG 250855Z AUTO 19003KT 3SM BR SCT032 OVC041 18/18 A2989 RMK AO2
KAWG 250835Z AUTO 20005KT 1SM BR SCT033 OVC042 17/17 A2989 RMK AO2
KAWG 250815Z AUTO 21003KT 1 1/2SM BR SCT033 BKN042 17/17 A2988 RMK AO2
KAWG 250735Z AUTO 21004KT 5SM BR SCT022 BKN032 17/17 A2990 RMK AO2
KAWG 250715Z AUTO 22005KT 6SM BR FEW021 18/18 A2989 RMK AO2
KAWG 250655Z AUTO 24004KT 7SM FEW032 18/18 A2989 RMK AO2
KAWG 250635Z AUTO 21005KT 8SM FEW021 BKN031 BKN038 18/18 A2989 RMK AO2
KAWG 250615Z AUTO 20005KT 8SM SCT021 BKN032 OVC038 19/19 A2990 RMK AO2
KAWG 250555Z AUTO 20005KT 7SM SCT027 BKN032 OVC038 18/18 A2990 RMK AO2
KAWG 250535Z AUTO 17006KT 6SM BR BKN024 BKN031 BKN037 17/17 A2990 RMK AO2
KAWG 250515Z AUTO 18005KT 6SM BR CLR 17/17 A2990 RMK AO2
KAWG 250455Z AUTO 20004KT 9SM CLR 18/18 A2990 RMK AO2
KAWG 250435Z AUTO 17005KT 10SM CLR 17/17 A2990 RMK AO2
KAWG 250415Z AUTO 16005KT 10SM CLR 17/17 A2989 RMK AO2
KAWG 250355Z AUTO 15006KT 10SM CLR 18/18 A2989 RMK AO2
KAWG 250335Z AUTO 16005KT 10SM CLR 19/19 A2989 RMK AO2
KAWG 250315Z AUTO 15007KT 10SM CLR 18/18 A2988 RMK AO2
KAWG 250255Z AUTO 15004KT 10SM FEW033 19/18 A2989 RMK AO2
KAWG 250235Z AUTO 16006KT 10SM BKN032 BKN037 20/18 A2988 RMK AO2
KAWG 250215Z AUTO 14005KT 10SM FEW028 OVC036 20/18 A2988 RMK AO2
KAWG 250155Z AUTO 15006KT 10SM OVC035 19/18 A2988 RMK AO2
KAWG 250135Z AUTO 15005KT 8SM BKN036 BKN043 OVC050 20/18 A2988 RMK AO2
KAWG 250115Z AUTO 16003KT 6SM BR BKN039 BKN044 BKN055 19/18 A2988 RMK AO2
KAWG 250055Z AUTO 16005KT 7SM CLR 20/18 A2987 RMK AO2
KAWG 250035Z AUTO 15004KT 10SM SCT055 20/18 A2987 RMK AO2
KAWG 250015Z AUTO 20004KT 10SM BKN055 22/18 A2987 RMK AO2
KAWG 242355Z AUTO 18004KT 10SM FEW042 BKN050 22/18 A2987 RMK AO2
KAWG 242335Z AUTO 19004KT 10SM SCT045 BKN055 24/18 A2988 RMK AO2
KAWG 242315Z AUTO 22005KT 10SM FEW042 BKN050 24/18 A2987 RMK AO2
KAWG 242255Z AUTO 20006G15KT 10SM OVC047 25/17 A2987 RMK AO2